createdAt,value
2022-11-11T00:01:05.313Z,18.13
2022-11-11T00:03:57.686Z,18.83
2022-11-11T00:06:44.159Z,18.08
2022-11-11T00:09:30.852Z,16.63
2022-11-11T00:12:18.989Z,17.00
2022-11-11T00:15:07.452Z,17.20
2022-11-11T00:18:12.148Z,17.75
2022-11-11T00:21:18.141Z,19.73
2022-11-11T00:24:52.227Z,19.30
2022-11-11T00:27:40.068Z,18.58
2022-11-11T00:30:26.740Z,18.10
2022-11-11T00:33:13.437Z,17.98
2022-11-11T00:36:00.135Z,18.27
2022-11-11T00:38:47.042Z,18.98
2022-11-11T00:41:33.738Z,19.38
2022-11-11T00:44:20.435Z,19.73
2022-11-11T00:47:25.077Z,17.90
2022-11-11T00:50:52.538Z,17.00
2022-11-11T00:53:40.946Z,18.77
2022-11-11T00:56:27.853Z,18.85
2022-11-11T00:59:15.549Z,18.97
2022-11-11T01:02:02.531Z,24.73
2022-11-11T01:04:48.981Z,21.48
2022-11-11T01:07:35.764Z,19.30
2022-11-11T01:10:38.865Z,19.73
2022-11-11T01:13:27.032Z,19.60
2022-11-11T01:16:16.037Z,19.73
2022-11-11T01:19:02.625Z,19.60
2022-11-11T01:21:48.902Z,19.48
2022-11-11T01:24:38.802Z,19.67
2022-11-11T01:27:25.140Z,19.70
2022-11-11T01:30:14.368Z,19.15
2022-11-11T01:33:01.350Z,19.00
2022-11-11T01:35:48.095Z,19.40
2022-11-11T01:38:38.232Z,20.60
2022-11-11T01:41:33.225Z,20.27
2022-11-11T01:44:46.765Z,19.40
2022-11-11T01:51:02.123Z,19.15
2022-11-11T01:53:52.786Z,20.75
2022-11-11T01:56:40.925Z,19.97
2022-11-11T01:59:28.507Z,21.17
2022-11-11T02:02:23.398Z,18.45
2022-11-11T02:05:31.142Z,23.15
2022-11-11T02:08:32.965Z,21.38
2022-11-11T02:11:42.397Z,20.87
2022-11-11T02:14:37.798Z,20.65
2022-11-11T02:17:29.052Z,20.83
2022-11-11T02:20:21.245Z,22.55
2022-11-11T02:23:19.946Z,21.58
2022-11-11T02:26:08.421Z,20.23
2022-11-11T02:28:55.667Z,19.50
2022-11-11T02:31:42.195Z,19.55
2022-11-11T02:34:32.906Z,21.35
2022-11-11T02:37:25.518Z,20.67
2022-11-11T02:40:18.706Z,18.97
2022-11-11T02:43:06.535Z,20.58
2022-11-11T02:45:53.544Z,20.23
2022-11-11T02:48:39.921Z,19.83
2022-11-11T02:51:26.530Z,19.02
2022-11-11T02:54:12.720Z,19.63
2022-11-11T02:57:08.256Z,22.25
2022-11-11T02:59:55.323Z,20.25
2022-11-11T03:02:42.535Z,20.50
2022-11-11T03:05:29.372Z,20.58
2022-11-11T03:08:16.416Z,21.50
2022-11-11T03:11:02.763Z,22.17
2022-11-11T03:13:49.396Z,20.65
2022-11-11T03:16:54.276Z,20.23
2022-11-11T03:19:41.263Z,20.38
2022-11-11T03:22:57.439Z,21.90
2022-11-11T03:25:40.464Z,21.73
2022-11-11T03:28:26.984Z,20.27
2022-11-11T03:31:13.292Z,19.52
2022-11-11T03:34:18.633Z,22.55
2022-11-11T03:37:33.199Z,22.07
2022-11-11T03:40:19.338Z,24.95
2022-11-11T03:43:06.647Z,22.35
2022-11-11T03:45:58.466Z,20.45
2022-11-11T03:48:44.960Z,22.58
2022-11-11T03:51:31.635Z,20.47
2022-11-11T03:54:18.283Z,21.60
2022-11-11T03:57:22.728Z,21.08
2022-11-11T04:00:14.452Z,20.20
2022-11-11T04:03:26.152Z,22.15
2022-11-11T04:06:31.404Z,22.77
2022-11-11T04:09:36.280Z,19.38
2022-11-11T04:12:23.953Z,20.17
2022-11-11T04:15:28.858Z,19.50
2022-11-11T04:18:15.559Z,20.15
2022-11-11T04:21:19.883Z,21.17
2022-11-11T04:24:27.311Z,20.73
2022-11-11T04:27:15.950Z,21.02
2022-11-11T04:30:02.368Z,20.30
2022-11-11T04:32:49.004Z,20.55
2022-11-11T04:35:35.988Z,19.77
2022-11-11T04:38:40.840Z,20.05
2022-11-11T04:41:40.816Z,21.13
2022-11-11T04:44:51.774Z,22.48
2022-11-11T04:47:38.566Z,22.75
2022-11-11T04:50:26.475Z,22.73
2022-11-11T04:53:15.863Z,21.13
2022-11-11T04:56:24.040Z,20.92
2022-11-11T04:59:20.503Z,21.90
2022-11-11T05:02:26.220Z,21.08
2022-11-11T05:05:12.853Z,20.57
2022-11-11T05:08:17.605Z,21.40
2022-11-11T05:11:04.600Z,20.00
2022-11-11T05:14:11.035Z,21.40
2022-11-11T05:17:17.834Z,20.42
2022-11-11T05:25:34.373Z,26.15
2022-11-11T05:28:20.916Z,23.92
2022-11-11T05:31:07.080Z,20.83
2022-11-11T05:33:53.735Z,19.98
2022-11-11T05:36:40.209Z,26.43
2022-11-11T05:39:26.390Z,22.88
2022-11-11T05:42:12.467Z,19.42
2022-11-11T05:44:58.990Z,18.73
2022-11-11T05:47:45.086Z,18.42
2022-11-11T05:55:02.859Z,19.40
2022-11-11T05:57:49.511Z,20.27
2022-11-11T06:00:35.889Z,20.20
2022-11-11T06:03:22.784Z,24.27
2022-11-11T06:06:09.175Z,25.50
2022-11-11T06:08:56.186Z,25.92
2022-11-11T06:11:42.626Z,24.77
2022-11-11T06:14:29.310Z,27.00
2022-11-11T06:17:15.870Z,22.02
2022-11-11T06:20:02.173Z,21.70
2022-11-11T06:22:57.187Z,20.75
2022-11-11T06:26:02.913Z,22.92
2022-11-11T06:28:54.512Z,21.35
2022-11-11T06:31:40.974Z,19.13
2022-11-11T06:34:27.320Z,20.13
2022-11-11T06:37:13.904Z,18.75
2022-11-11T06:40:00.503Z,20.13
2022-11-11T06:42:47.138Z,22.15
2022-11-11T06:45:34.574Z,30.00
2022-11-11T06:48:22.440Z,22.80
2022-11-11T06:51:08.673Z,22.00
2022-11-11T06:53:54.805Z,21.52
2022-11-11T06:56:41.273Z,24.30
2022-11-11T06:59:28.198Z,41.13
2022-11-11T07:02:15.242Z,21.13
2022-11-11T07:05:02.413Z,20.13
2022-11-11T07:07:48.747Z,22.05
2022-11-11T07:10:38.831Z,25.02
2022-11-11T07:13:25.507Z,22.77
2022-11-11T07:16:12.566Z,20.30
2022-11-11T07:18:58.999Z,20.17
2022-11-11T07:21:45.665Z,21.23
2022-11-11T07:24:31.854Z,22.05
2022-11-11T07:27:18.057Z,19.98
2022-11-11T07:30:05.346Z,21.33
2022-11-11T07:32:53.285Z,20.08
2022-11-11T07:35:39.484Z,19.58
2022-11-11T07:38:26.346Z,21.35
2022-11-11T07:41:13.169Z,19.98
2022-11-11T07:43:59.920Z,19.47
2022-11-11T07:46:46.259Z,20.40
2022-11-11T07:49:33.160Z,19.23
2022-11-11T07:52:19.765Z,20.65
2022-11-11T07:55:06.912Z,19.98
2022-11-11T07:57:53.766Z,20.27
2022-11-11T08:00:40.441Z,20.73
2022-11-11T08:03:27.377Z,21.50
2022-11-11T08:06:14.027Z,19.35
2022-11-11T08:09:00.590Z,18.48
2022-11-11T08:12:05.368Z,20.13
2022-11-11T08:14:51.696Z,19.55
2022-11-11T08:17:41.459Z,19.33
2022-11-11T08:27:12.908Z,14.70
2022-11-11T08:29:58.894Z,14.15
2022-11-11T08:32:45.560Z,13.48
2022-11-11T08:35:32.656Z,14.27
2022-11-11T08:38:19.658Z,14.15
2022-11-11T08:41:07.726Z,13.03
2022-11-11T08:43:56.119Z,14.98
2022-11-11T08:46:42.211Z,12.45
2022-11-11T08:49:28.670Z,13.25
2022-11-11T08:52:14.745Z,13.65
2022-11-11T08:55:01.341Z,12.67
2022-11-11T08:57:47.582Z,16.23
2022-11-11T09:00:34.599Z,16.90
2022-11-11T09:03:20.846Z,16.85
2022-11-11T09:06:07.621Z,19.50
2022-11-11T09:08:53.691Z,17.53
2022-11-11T09:11:40.351Z,15.80
2022-11-11T09:14:27.004Z,14.60
2022-11-11T09:17:13.688Z,16.90
2022-11-11T09:20:00.121Z,17.40
2022-11-11T09:22:48.587Z,15.70
2022-11-11T09:25:34.968Z,16.58
2022-11-11T09:28:21.649Z,15.15
2022-11-11T09:31:37.513Z,14.57
2022-11-11T09:34:15.059Z,17.90
2022-11-11T09:37:01.341Z,21.63
2022-11-11T09:39:49.184Z,16.95
2022-11-11T09:42:42.355Z,15.73
2022-11-11T09:45:41.351Z,11.35
2022-11-11T09:48:44.291Z,8.35
2022-11-11T09:51:36.157Z,8.80
2022-11-11T09:54:34.950Z,8.73
2022-11-11T09:57:36.305Z,8.52
2022-11-11T10:00:44.712Z,8.68
2022-11-11T10:03:39.926Z,8.02
2022-11-11T10:06:32.565Z,9.13
2022-11-11T10:09:42.095Z,10.43
2022-11-11T10:12:42.979Z,15.23
2022-11-11T10:15:43.079Z,32.47
2022-11-11T10:18:51.086Z,8.43
2022-11-11T10:22:15.258Z,10.93
2022-11-11T10:25:08.658Z,8.90
2022-11-11T10:28:00.382Z,7.13
2022-11-11T10:30:49.838Z,8.45
2022-11-11T10:34:05.823Z,11.77
2022-11-11T10:36:56.335Z,8.30
2022-11-11T10:39:49.815Z,7.78
2022-11-11T10:42:40.908Z,7.90
2022-11-11T10:45:51.794Z,8.05
2022-11-11T10:48:50.277Z,9.07
2022-11-11T10:51:46.265Z,11.43
2022-11-11T10:54:49.801Z,10.00
2022-11-11T10:57:48.042Z,8.35
2022-11-11T11:00:39.701Z,7.63
2022-11-11T11:03:43.114Z,7.35
2022-11-11T11:06:35.364Z,6.70
2022-11-11T11:10:10.448Z,6.63
2022-11-11T11:13:17.239Z,6.43
2022-11-11T11:16:09.410Z,7.07
2022-11-11T11:22:59.867Z,7.33
2022-11-11T11:25:54.699Z,7.55
2022-11-11T11:28:55.366Z,7.05
2022-11-11T11:31:43.421Z,7.90
2022-11-11T11:34:54.153Z,7.85
2022-11-11T11:37:52.026Z,7.87
2022-11-11T11:40:53.273Z,7.43
2022-11-11T11:43:45.998Z,8.73
2022-11-11T11:46:46.113Z,6.72
2022-11-11T11:49:40.737Z,6.82
2022-11-11T11:52:54.593Z,8.50
2022-11-11T11:56:05.106Z,8.07
2022-11-11T11:58:58.862Z,7.97
2022-11-11T12:02:15.731Z,6.78
2022-11-11T12:05:09.024Z,6.18
2022-11-11T12:08:33.250Z,6.53
2022-11-11T12:11:54.562Z,6.50
2022-11-11T12:14:56.013Z,6.82
2022-11-11T12:17:55.852Z,5.72
2022-11-11T12:20:57.934Z,6.72
2022-11-11T12:24:23.033Z,5.90
2022-11-11T12:27:15.459Z,6.50
2022-11-11T12:30:11.692Z,6.82
2022-11-11T12:33:38.095Z,6.80
2022-11-11T12:36:36.393Z,6.43
2022-11-11T12:40:20.587Z,6.53
2022-11-11T12:43:46.849Z,5.97
2022-11-11T12:46:46.389Z,5.95
2022-11-11T12:49:39.255Z,5.90
2022-11-11T12:52:53.032Z,5.80
2022-11-11T12:56:14.744Z,6.37
2022-11-11T12:59:09.204Z,6.40
2022-11-11T13:02:34.167Z,6.05
2022-11-11T13:05:22.727Z,6.35
2022-11-11T13:08:29.374Z,6.32
2022-11-11T13:11:40.697Z,6.00
2022-11-11T13:14:52.108Z,6.32
2022-11-11T13:17:44.797Z,5.90
2022-11-11T13:20:55.439Z,6.18
2022-11-11T13:23:42.232Z,6.53
2022-11-11T13:26:39.630Z,6.00
2022-11-11T13:30:02.745Z,21.52
2022-11-11T13:32:53.721Z,19.08
2022-11-11T13:35:45.521Z,13.95
2022-11-11T13:38:53.206Z,25.90
2022-11-11T13:41:42.286Z,43.80
2022-11-11T13:44:34.588Z,18.90
2022-11-11T13:47:44.766Z,11.88
2022-11-11T13:50:40.094Z,13.27
2022-11-11T13:53:29.321Z,13.63
2022-11-11T13:56:29.707Z,10.40
2022-11-11T13:59:32.167Z,10.40
2022-11-11T14:02:21.633Z,17.80
2022-11-11T14:05:11.092Z,18.02
2022-11-11T14:07:58.258Z,22.90
2022-11-11T14:10:52.356Z,17.60
2022-11-11T14:13:40.869Z,14.15
2022-11-11T14:16:36.394Z,10.85
2022-11-11T14:19:23.448Z,11.65
2022-11-11T14:22:30.550Z,12.13
2022-11-11T14:25:28.079Z,10.47
2022-11-11T14:28:29.572Z,11.13
2022-11-11T14:31:16.420Z,15.10
2022-11-11T14:34:28.078Z,14.27
2022-11-11T14:37:41.049Z,11.52
2022-11-11T14:40:32.525Z,11.93
2022-11-11T14:43:41.356Z,10.88
2022-11-11T14:47:08.258Z,10.15
2022-11-11T14:49:56.241Z,16.63
2022-11-11T14:52:45.972Z,12.80
2022-11-11T14:55:45.683Z,12.13
2022-11-11T14:58:40.721Z,10.63
2022-11-11T15:01:29.203Z,10.95
2022-11-11T15:04:17.052Z,9.60
2022-11-11T15:07:53.027Z,12.07
2022-11-11T15:11:19.597Z,10.10
2022-11-11T15:14:15.999Z,7.07
2022-11-11T15:17:24.296Z,8.40
2022-11-11T15:20:37.572Z,8.05
2022-11-11T15:23:27.385Z,12.32
2022-11-11T15:27:02.426Z,14.63
2022-11-11T15:30:03.170Z,22.73
2022-11-11T15:33:10.367Z,27.83
2022-11-11T15:36:00.073Z,15.85
2022-11-11T15:38:48.127Z,49.85
2022-11-11T15:41:40.482Z,15.27
2022-11-11T15:44:33.854Z,13.20
2022-11-11T15:47:24.684Z,11.13
2022-11-11T15:50:26.973Z,12.40
2022-11-11T15:53:16.460Z,10.23
2022-11-11T15:56:03.949Z,10.07
2022-11-11T15:58:50.763Z,9.95
2022-11-11T16:01:38.065Z,45.65
2022-11-11T16:04:54.401Z,23.05
2022-11-11T16:07:36.786Z,12.35
2022-11-11T16:10:35.342Z,11.77
2022-11-11T16:13:26.113Z,11.57
2022-11-11T16:16:19.809Z,12.48
2022-11-11T16:19:09.190Z,12.13
2022-11-11T16:22:13.733Z,14.00
2022-11-11T16:25:04.056Z,13.07
2022-11-11T16:27:51.616Z,12.38
2022-11-11T16:30:38.586Z,11.32
2022-11-11T16:33:28.347Z,12.82
2022-11-11T16:36:15.436Z,11.90
2022-11-11T16:39:21.835Z,10.40
2022-11-11T16:42:29.973Z,9.15
2022-11-11T16:45:21.449Z,9.65
2022-11-11T16:48:51.583Z,8.45
2022-11-11T16:51:48.397Z,8.30
2022-11-11T16:54:38.886Z,8.90
2022-11-11T16:57:28.893Z,9.13
2022-11-11T17:00:20.116Z,20.42
2022-11-11T17:03:14.566Z,15.57
2022-11-11T17:06:08.641Z,10.20
2022-11-11T17:08:55.623Z,19.40
2022-11-11T17:11:44.476Z,46.35
2022-11-11T17:14:38.796Z,21.88
2022-11-11T17:17:26.223Z,16.88
2022-11-11T17:20:17.568Z,25.80
2022-11-11T17:23:06.851Z,21.60
2022-11-11T17:26:01.648Z,21.00
2022-11-11T17:28:48.355Z,15.90
2022-11-11T17:31:34.516Z,17.73
2022-11-11T17:34:21.175Z,17.75
2022-11-11T17:37:07.750Z,12.97
2022-11-11T17:39:54.330Z,13.15
2022-11-11T17:42:40.539Z,15.07
2022-11-11T17:45:28.606Z,12.68
2022-11-11T17:48:14.785Z,12.55
2022-11-11T17:51:05.854Z,13.43
2022-11-11T17:53:52.623Z,12.05
2022-11-11T17:56:39.415Z,12.18
2022-11-11T17:59:26.858Z,14.68
2022-11-11T18:02:14.710Z,20.95
2022-11-11T18:05:00.954Z,17.93
2022-11-11T18:07:47.599Z,26.38
2022-11-11T18:10:33.922Z,59.65
2022-11-11T18:13:20.535Z,44.72
2022-11-11T18:16:07.343Z,37.67
2022-11-11T18:18:55.531Z,58.27
2022-11-11T18:21:42.638Z,33.47
2022-11-11T18:24:29.196Z,30.67
2022-11-11T18:27:17.583Z,32.20
2022-11-11T18:30:06.578Z,24.25
2022-11-11T18:32:54.107Z,24.30
2022-11-11T18:35:40.786Z,20.60
2022-11-11T18:38:29.903Z,20.25
2022-11-11T18:41:18.794Z,20.77
2022-11-11T18:44:04.767Z,23.73
2022-11-11T18:46:52.009Z,22.53
2022-11-11T18:49:38.400Z,27.48
2022-11-11T18:52:25.280Z,23.90
2022-11-11T18:55:12.681Z,26.15
2022-11-11T18:57:59.501Z,22.08
2022-11-11T19:00:45.903Z,23.00
2022-11-11T19:03:34.042Z,21.50
2022-11-11T19:06:21.400Z,21.90
2022-11-11T19:09:12.790Z,21.83
2022-11-11T19:11:59.251Z,20.63
2022-11-11T19:14:45.667Z,22.20
2022-11-11T19:17:31.857Z,23.60
2022-11-11T19:20:18.707Z,23.85
2022-11-11T19:23:04.885Z,23.35
2022-11-11T19:25:57.510Z,24.23
2022-11-11T19:28:44.075Z,22.93
2022-11-11T19:31:30.718Z,23.77
2022-11-11T19:34:16.957Z,20.50
2022-11-11T19:37:05.229Z,20.58
2022-11-11T19:39:51.780Z,18.83
2022-11-11T19:42:38.444Z,19.90
2022-11-11T19:45:24.423Z,20.50
2022-11-11T19:48:11.691Z,19.85
2022-11-11T19:50:57.608Z,19.20
2022-11-11T19:53:46.160Z,18.80
2022-11-11T19:56:32.737Z,17.87
2022-11-11T19:59:19.836Z,19.40
2022-11-11T20:02:06.468Z,18.27
2022-11-11T20:04:53.502Z,18.88
2022-11-11T20:07:40.246Z,19.00
2022-11-11T20:10:26.767Z,20.08
2022-11-11T20:13:13.023Z,19.15
2022-11-11T20:16:04.216Z,18.02
2022-11-11T20:18:53.788Z,18.00
2022-11-11T20:21:44.639Z,18.20
2022-11-11T20:24:35.329Z,18.37
2022-11-11T20:27:24.431Z,18.23
2022-11-11T20:30:11.053Z,19.23
2022-11-11T20:32:57.743Z,20.73
2022-11-11T20:35:43.683Z,20.45
2022-11-11T20:38:31.428Z,19.37
2022-11-11T20:41:19.911Z,20.38
2022-11-11T20:44:06.563Z,18.95
2022-11-11T20:46:53.743Z,20.48
2022-11-11T20:49:40.469Z,21.08
2022-11-11T20:52:26.429Z,21.80
2022-11-11T20:55:13.287Z,21.45
2022-11-11T20:57:59.614Z,22.63
2022-11-11T21:00:46.236Z,25.88
2022-11-11T21:03:32.835Z,25.83
2022-11-11T21:06:19.243Z,26.67
2022-11-11T21:09:07.875Z,26.88
2022-11-11T21:11:54.303Z,28.50
2022-11-11T21:14:40.850Z,29.13
2022-11-11T21:17:27.489Z,27.73
2022-11-11T21:20:13.566Z,28.33
2022-11-11T21:23:01.383Z,29.02
2022-11-11T21:25:47.398Z,28.02
2022-11-11T21:28:35.708Z,27.27
2022-11-11T21:31:30.461Z,27.38
2022-11-11T21:34:17.208Z,25.97
2022-11-11T21:37:03.507Z,27.48
2022-11-11T21:39:50.171Z,29.45
2022-11-11T21:42:36.175Z,30.98
2022-11-11T21:45:22.813Z,30.85
2022-11-11T21:48:10.726Z,31.83
2022-11-11T21:51:09.050Z,31.83
2022-11-11T21:54:02.258Z,33.17
2022-11-11T21:56:49.297Z,33.75
2022-11-11T21:59:40.214Z,22.80
2022-11-11T22:02:33.763Z,28.97
2022-11-11T22:05:24.880Z,26.38
2022-11-11T22:08:17.774Z,25.73
2022-11-11T22:11:12.326Z,31.85
2022-11-11T22:14:01.445Z,29.25
2022-11-11T22:16:47.867Z,26.23
2022-11-11T22:19:34.704Z,27.00
2022-11-11T22:22:21.244Z,26.55
2022-11-11T22:25:08.310Z,25.98
2022-11-11T22:27:54.523Z,27.45
2022-11-11T22:30:41.299Z,25.73
2022-11-11T22:33:27.704Z,23.65
2022-11-11T22:36:19.555Z,22.48
2022-11-11T22:39:07.552Z,22.27
2022-11-11T22:41:54.249Z,24.33
2022-11-11T22:44:40.455Z,23.20
2022-11-11T22:47:27.354Z,25.02
2022-11-11T22:50:13.840Z,24.48
2022-11-11T22:53:00.468Z,25.55
2022-11-11T22:55:46.379Z,25.98
2022-11-11T22:58:34.273Z,22.03
2022-11-11T23:01:29.248Z,21.80
2022-11-11T23:04:17.461Z,24.30
2022-11-11T23:07:03.546Z,23.58
2022-11-11T23:09:50.691Z,24.60
2022-11-11T23:12:36.939Z,24.57
2022-11-11T23:15:23.743Z,22.55
2022-11-11T23:18:10.180Z,24.70
2022-11-11T23:21:02.094Z,25.10
2022-11-11T23:23:50.061Z,24.50
2022-11-11T23:26:36.670Z,26.77
2022-11-11T23:29:22.878Z,27.48
2022-11-11T23:32:09.315Z,27.08
2022-11-11T23:34:55.194Z,25.80
2022-11-11T23:37:41.905Z,29.42
2022-11-11T23:40:28.592Z,23.47
2022-11-11T23:43:15.227Z,22.45
2022-11-11T23:46:01.440Z,22.00
2022-11-11T23:48:47.819Z,22.38
2022-11-11T23:51:33.908Z,21.98
2022-11-11T23:54:20.714Z,22.90
2022-11-11T23:57:07.186Z,22.65
2022-11-11T23:59:54.833Z,24.48
